Big Sandy Regional (SJS)

 

Airport Diagram
No Airport Diagram Available
Current Weather/Forecast (MVFR Conditions)
METAR KSJS 071335Z AUTO 30006KT 10SM BKN017 BKN022 BKN028 10/08 A3000 RMK AO2 T01020075
TAF KSJS 071120Z 0712/0812 29006KT P6SM OVC017 FM071400 31009KT P6SM SCT035 FM080000 VRB05KT P6SM VCSH BKN070 FM080600 VRB04KT P6SM BKN035

Airport Information

All Charts
General
Chart Name View
TAKEOFF MINIMUMS
ALTERNATE MINIMUMS

Approaches
Chart Name Download
RNAV (GPS) RWY 03
RNAV (GPS) RWY 21


Airport Statistics
Departures Arrivals Local
All Collected Stats since June 2016: 3 3 0
2021 Stats: 0 1 0
May Stats: 0 0 0

Inbound Traffic (Arrivals) - 0

No inbound traffic.


Outbound Traffic (Departures) - 0

No outbound traffic.


Local Traffic (Pattern) - 0

No local traffic.